Time;durP1;ratioP1;P1;durP2;ratioP2;P2;SDS_P1;SDS_P2;PMS_P1;PMS_P2;Temp;Humidity;BMP_temperature;BMP_pressure;BME280_temperature;BME280_humidity;BME280_pressure;Samples;Min_cycle;Max_cycle;Signal;HPM_P1;HPM_P2
2022/05/01 00:02:23;;;;;;;7.20;2.93;;;10.50;97.80;9.80;98755.00;;;;5134327;28;20716;-79
2022/05/01 00:04:50;;;;;;;3.03;2.83;;;10.50;97.70;9.80;98750.00;;;;5134607;28;20296;-79
2022/05/01 00:07:19;;;;;;;2.00;1.90;;;10.50;97.40;9.80;98748.00;;;;5116403;28;20225;-79
2022/05/01 00:09:45;;;;;;;2.97;2.53;;;10.50;96.90;9.80;98737.00;;;;5134468;28;20261;-78
2022/05/01 00:12:12;;;;;;;5.63;2.53;;;10.50;96.90;9.80;98732.00;;;;5134293;27;20227;-78
2022/05/01 00:14:38;;;;;;;2.30;2.20;;;10.40;96.80;9.70;98744.00;;;;5138377;28;20548;-78
2022/05/01 00:17:05;;;;;;;4.87;2.77;;;10.40;96.50;9.70;98740.00;;;;5138069;28;20284;-79
2022/05/01 00:19:32;;;;;;;2.30;2.20;;;10.40;96.80;9.80;98743.00;;;;5119718;28;20300;-79
2022/05/01 00:21:59;;;;;;;2.47;2.27;;;10.40;97.30;9.80;98744.00;;;;5119964;28;20205;-79
2022/05/01 00:24:26;;;;;;;3.90;3.43;;;10.40;97.10;9.80;98744.00;;;;5120318;28;20523;-78
2022/05/01 00:26:55;;;;;;;2.97;2.67;;;10.50;97.40;9.90;98739.00;;;;5119541;28;20228;-78
2022/05/01 00:29:21;;;;;;;1.93;1.83;;;10.50;98.00;9.80;98733.00;;;;5137842;28;20238;-77
2022/05/01 00:31:48;;;;;;;2.23;2.13;;;10.50;96.80;9.80;98723.00;;;;5119515;28;20245;-79
2022/05/01 00:37:00;;;;;;;3.13;2.83;;;10.50;97.20;9.80;98735.00;;;;5119681;28;20753;-78
2022/05/01 00:39:26;;;;;;;2.23;2.13;;;10.50;96.00;9.70;98723.00;;;;5137624;28;20239;-81
2022/05/01 00:41:53;;;;;;;2.73;2.53;;;10.40;96.20;9.80;98734.00;;;;5137538;28;20228;-79
2022/05/01 00:44:21;;;;;;;2.40;2.20;;;10.40;96.10;9.70;98731.00;;;;5137378;28;20198;-79
2022/05/01 00:46:52;;;;;;;2.20;2.10;;;10.40;96.20;9.70;98717.00;;;;5137408;28;20190;-80
2022/05/01 00:49:22;;;;;;;5.37;4.20;;;10.40;96.00;9.70;98717.00;;;;5137289;28;20668;-78
2022/05/01 00:51:53;;;;;;;2.73;2.53;;;10.30;96.50;9.70;98710.00;;;;5137250;28;20213;-77
2022/05/01 00:54:25;;;;;;;2.33;2.20;;;10.30;96.30;9.50;98720.00;;;;5137102;28;20210;-78
2022/05/01 00:56:59;;;;;;;2.73;2.60;;;10.20;96.10;9.50;98717.00;;;;5137182;28;20289;-79
2022/05/01 00:59:27;;;;;;;3.80;3.13;;;10.20;96.60;9.60;98723.00;;;;5137034;28;20222;-77
2022/05/01 01:01:53;;;;;;;11.33;2.17;;;10.20;96.20;9.40;98707.00;;;;5118673;28;20283;-78
2022/05/01 01:04:21;;;;;;;3.23;2.97;;;10.20;96.40;9.70;98736.00;;;;5137324;28;20315;-77
2022/05/01 01:06:48;;;;;;;3.20;2.80;;;10.30;96.30;9.50;98719.00;;;;5143273;28;20197;-77
2022/05/01 01:09:18;;;;;;;3.30;3.10;;;10.20;95.80;9.40;98725.00;;;;5123979;28;20270;-78
2022/05/01 01:11:46;;;;;;;4.73;2.50;;;10.10;95.90;9.30;98720.00;;;;5136832;28;20307;-78
2022/05/01 01:14:15;;;;;;;2.87;2.67;;;10.00;96.30;9.30;98729.00;;;;5118885;28;20244;-78
2022/05/01 01:16:44;;;;;;;2.37;2.27;;;10.00;96.30;9.30;98725.00;;;;5136808;28;20232;-79
2022/05/01 01:19:13;;;;;;;2.80;2.60;;;10.00;96.70;9.40;98726.00;;;;5118689;28;20202;-79
2022/05/01 01:21:42;;;;;;;1.93;1.83;;;10.00;96.40;9.50;98727.00;;;;5136682;28;20217;-79
2022/05/01 01:24:10;;;;;;;8.20;3.10;;;10.10;96.60;9.50;98719.00;;;;5135965;27;20212;-77
2022/05/01 01:26:37;;;;;;;7.83;3.23;;;10.20;96.50;9.50;98721.00;;;;5136746;28;20202;-78
2022/05/01 01:31:40;;;;;;;2.47;2.37;;;10.20;96.50;9.60;98712.00;;;;5118654;28;20197;-79
2022/05/01 01:31:55;;;;;;;11.90;2.97;;;10.20;96.40;9.60;98715.00;;;;5136534;28;20282;-78
2022/05/01 01:34:35;;;;;;;3.17;2.90;;;10.30;96.20;9.60;98704.00;;;;5136730;28;20221;-79
2022/05/01 01:37:05;;;;;;;3.50;2.50;;;10.20;96.60;9.60;98721.00;;;;5118662;28;20232;-79
2022/05/01 01:39:31;;;;;;;2.33;2.23;;;10.20;96.10;9.70;98726.00;;;;5136695;28;20220;-78
2022/05/01 01:42:04;;;;;;;2.33;2.23;;;10.30;96.20;9.60;98719.00;;;;5136429;28;20224;-79
2022/05/01 01:44:37;;;;;;;3.27;2.57;;;10.30;95.80;9.60;98722.00;;;;5136342;28;20303;-79
2022/05/01 01:47:05;;;;;;;2.87;2.67;;;10.30;96.60;9.60;98715.00;;;;5136528;28;20659;-79
2022/05/01 01:49:31;;;;;;;3.33;3.03;;;10.20;95.10;9.50;98715.00;;;;5136341;28;20217;-79
2022/05/01 01:51:58;;;;;;;6.87;4.27;;;10.20;95.60;9.50;98710.00;;;;5136417;28;20289;-79
2022/05/01 01:54:25;;;;;;;4.33;2.77;;;10.30;95.90;9.60;98714.00;;;;5136460;28;20186;-79
2022/05/01 01:56:52;;;;;;;3.03;2.80;;;10.20;95.60;9.60;98709.00;;;;5136255;28;20200;-79
2022/05/01 01:59:19;;;;;;;2.20;2.10;;;10.20;95.60;9.60;98716.00;;;;5136426;28;20361;-79
2022/05/01 02:01:45;;;;;;;2.13;2.03;;;10.20;95.60;9.60;98706.00;;;;5136257;28;20303;-78
2022/05/01 02:04:12;;;;;;;2.20;2.10;;;10.30;96.10;9.40;98692.00;;;;5136254;28;20667;-78
2022/05/01 02:06:38;;;;;;;3.27;3.07;;;10.10;95.20;9.50;98695.00;;;;5136087;28;20236;-78
2022/05/01 02:09:06;;;;;;;2.70;2.60;;;10.10;95.50;9.40;98694.00;;;;5136391;28;20197;-78
2022/05/01 02:11:35;;;;;;;2.63;2.13;;;10.10;95.60;9.50;98697.00;;;;5118157;28;20235;-78
2022/05/01 02:14:01;;;;;;;4.80;3.03;;;10.10;95.60;9.50;98691.00;;;;5136050;28;20193;-79
2022/05/01 02:16:29;;;;;;;4.00;3.70;;;10.10;95.40;9.40;98693.00;;;;5136140;28;20235;-79
2022/05/01 02:18:56;;;;;;;3.87;3.60;;;10.10;96.40;9.40;98690.00;;;;5136424;28;20213;-78
2022/05/01 02:21:35;;;;;;;4.07;3.30;;;10.10;96.00;9.50;98689.00;;;;5141656;28;20193;-78
2022/05/01 02:24:04;;;;;;;5.77;3.40;;;10.10;95.60;9.40;98684.00;;;;5143874;28;20221;-81
2022/05/01 02:26:30;;;;;;;3.07;2.20;;;10.10;95.70;9.40;98688.00;;;;5138100;28;20218;-79
2022/05/01 02:28:59;;;;;;;2.90;2.70;;;10.10;95.80;9.40;98684.00;;;;5137591;28;20225;-77
2022/05/01 02:31:27;;;;;;;3.00;2.70;;;10.00;96.00;9.30;98677.00;;;;5121769;28;20234;-80
2022/05/01 02:33:53;;;;;;;5.83;4.47;;;10.10;96.00;9.30;98671.00;;;;5140177;28;20640;-80
2022/05/01 02:36:22;;;;;;;1.87;1.77;;;10.00;96.30;9.20;98678.00;;;;5136502;27;20241;-80
2022/05/01 02:38:49;;;;;;;3.33;2.40;;;9.90;96.70;9.30;98683.00;;;;5118680;28;20233;-81
2022/05/01 02:41:18;;;;;;;3.50;3.20;;;9.90;96.70;9.30;98678.00;;;;5135698;28;20655;-79
2022/05/01 02:43:46;;;;;;;2.90;2.67;;;9.90;97.00;9.20;98678.00;;;;5137467;28;20212;-79
2022/05/01 02:46:13;;;;;;;2.93;2.73;;;9.90;96.80;9.20;98693.00;;;;5135396;28;20214;-79
2022/05/01 02:48:42;;;;;;;7.67;3.87;;;9.80;97.00;9.20;98688.00;;;;5135521;28;20270;-79
2022/05/01 02:51:10;;;;;;;3.50;3.20;;;9.90;97.40;9.30;98678.00;;;;5135319;28;20193;-78
2022/05/01 02:53:38;;;;;;;4.40;4.00;;;9.90;97.90;9.30;98648.00;;;;5135349;28;20221;-79
2022/05/01 02:56:05;;;;;;;3.20;3.00;;;9.90;97.90;9.30;98686.00;;;;5135555;28;20256;-79
2022/05/01 02:58:32;;;;;;;5.53;3.43;;;10.00;97.50;9.20;98674.00;;;;5135167;28;20724;-79
2022/05/01 03:00:59;;;;;;;2.80;2.07;;;9.90;97.70;9.30;98673.00;;;;5135193;28;20216;-78
2022/05/01 03:03:27;;;;;;;2.63;2.50;;;9.90;98.20;9.30;98679.00;;;;5135235;28;20224;-79
2022/05/01 03:05:54;;;;;;;4.50;4.20;;;10.00;98.20;9.30;98670.00;;;;5135775;28;20235;-79
2022/05/01 03:08:22;;;;;;;2.63;2.40;;;10.00;97.80;9.40;98676.00;;;;5135047;28;20235;-79
2022/05/01 03:10:52;;;;;;;1.77;1.67;;;10.00;97.80;9.30;98675.00;;;;5117723;28;20255;-79
2022/05/01 03:13:18;;;;;;;2.73;2.53;;;10.00;97.50;9.40;98674.00;;;;5142748;28;20239;-79
2022/05/01 03:15:46;;;;;;;2.70;2.50;;;10.10;98.60;9.40;98664.00;;;;5141725;28;20198;-78
2022/05/01 03:23:46;;;;;;;5.97;3.40;;;10.10;97.80;9.40;98662.00;;;;5135277;28;20263;-79
2022/05/01 03:26:16;;;;;;;2.10;2.00;;;10.10;97.30;9.50;98667.00;;;;5134810;28;20249;-78
2022/05/01 03:28:43;;;;;;;6.07;3.40;;;10.10;97.70;9.50;98666.00;;;;5134848;28;20181;-79
2022/05/01 03:31:10;;;;;;;3.43;2.80;;;10.20;97.20;9.50;98656.00;;;;5134824;28;20221;-79
2022/05/01 03:33:37;;;;;;;4.87;4.37;;;10.10;97.20;9.60;98662.00;;;;5116747;28;20267;-79
2022/05/01 03:36:08;;;;;;;3.13;2.83;;;10.20;96.60;9.50;98654.00;;;;5134939;28;20209;-77
2022/05/01 03:38:36;;;;;;;2.97;2.77;;;10.20;96.00;9.40;98655.00;;;;5116653;28;20612;-79
2022/05/01 03:41:05;;;;;;;2.83;2.67;;;10.10;96.90;9.40;98652.00;;;;5134970;28;20224;-79
2022/05/01 03:43:32;;;;;;;4.47;4.07;;;10.10;97.30;9.40;98661.00;;;;5135966;28;20213;-78
2022/05/01 03:46:02;;;;;;;5.10;2.23;;;10.10;97.00;9.40;98660.00;;;;5134893;28;20201;-79
2022/05/01 03:48:28;;;;;;;3.33;2.43;;;10.10;97.50;9.50;98663.00;;;;5136607;27;20311;-79
2022/05/01 03:50:55;;;;;;;1.90;1.80;;;10.10;98.20;9.50;98667.00;;;;5138255;28;20270;-79
2022/05/01 03:53:23;;;;;;;2.03;1.93;;;10.10;97.80;9.40;98672.00;;;;5138063;28;20289;-78
2022/05/01 03:55:51;;;;;;;3.50;2.77;;;10.10;97.90;9.30;98669.00;;;;5138467;28;20205;-79
2022/05/01 03:58:18;;;;;;;1.93;1.83;;;10.00;98.20;9.40;98667.00;;;;5138276;28;20643;-78
2022/05/01 04:00:47;;;;;;;3.17;2.97;;;10.10;98.40;9.40;98675.00;;;;5138150;28;20262;-78
2022/05/01 04:03:16;;;;;;;3.10;2.90;;;10.10;97.80;9.30;98666.00;;;;5119984;28;20200;-79
2022/05/01 04:05:44;;;;;;;2.70;2.50;;;10.10;97.70;9.20;98670.00;;;;5137943;28;20223;-78
2022/05/01 04:08:12;;;;;;;4.73;3.37;;;10.00;98.10;9.40;98662.00;;;;5138042;28;20797;-79
2022/05/01 04:10:43;;;;;;;3.30;3.00;;;10.10;98.40;9.40;98673.00;;;;5137832;28;20228;-79
2022/05/01 04:13:11;;;;;;;3.03;2.83;;;10.10;98.20;9.30;98675.00;;;;5137800;28;20310;-78
2022/05/01 04:15:38;;;;;;;2.73;2.53;;;10.00;98.10;9.30;98667.00;;;;5137804;28;20196;-79
2022/05/01 04:18:08;;;;;;;2.13;2.03;;;10.00;98.00;9.30;98666.00;;;;5137975;28;20244;-78
2022/05/01 04:20:37;;;;;;;2.67;2.47;;;10.00;97.40;9.30;98668.00;;;;5137749;28;20228;-78
2022/05/01 04:23:08;;;;;;;5.10;2.40;;;10.00;97.40;9.40;98665.00;;;;5137840;28;20276;-79
2022/05/01 04:25:36;;;;;;;3.30;3.00;;;10.00;97.80;9.40;98664.00;;;;5137993;28;20217;-78
2022/05/01 04:28:06;;;;;;;2.20;2.10;;;10.00;98.00;9.50;98666.00;;;;5137659;28;20221;-79
2022/05/01 04:30:33;;;;;;;2.13;2.03;;;10.00;98.30;9.50;98666.00;;;;5137835;28;20615;-78
2022/05/01 04:33:02;;;;;;;2.70;2.50;;;10.10;98.00;9.50;98661.00;;;;5119158;28;20241;-79
2022/05/01 04:35:33;;;;;;;2.00;1.90;;;10.10;97.60;9.50;98677.00;;;;5137477;28;20658;-78
2022/05/01 04:38:01;;;;;;;3.80;2.30;;;10.10;97.40;9.50;98673.00;;;;5137681;28;20193;-78
2022/05/01 04:40:29;;;;;;;2.47;2.37;;;10.10;97.30;9.50;98672.00;;;;5137536;28;20290;-79
2022/05/01 04:43:04;;;;;;;2.80;2.60;;;10.10;97.30;9.50;98684.00;;;;5137438;28;20217;-78
2022/05/01 04:45:31;;;;;;;2.63;2.43;;;10.20;98.60;9.60;98680.00;;;;5137349;28;20203;-79
2022/05/01 04:47:58;;;;;;;4.60;3.90;;;10.30;97.80;9.50;98677.00;;;;5137493;28;20204;-79
2022/05/01 04:50:26;;;;;;;2.90;2.70;;;10.20;97.60;9.60;98678.00;;;;5119131;28;20324;-79
2022/05/01 04:52:53;;;;;;;1.20;1.20;;;10.20;97.40;9.60;98681.00;;;;5137145;28;20291;-77
2022/05/01 04:55:22;;;;;;;3.03;2.77;;;10.20;97.70;9.60;98682.00;;;;5137308;28;20220;-79
2022/05/01 04:57:49;;;;;;;3.70;3.50;;;10.20;97.90;9.70;98679.00;;;;5138375;28;20201;-79
2022/05/01 05:00:19;;;;;;;1.80;1.70;;;10.30;98.20;9.60;98682.00;;;;5137770;27;20197;-79
2022/05/01 05:02:49;;;;;;;2.57;2.47;;;10.20;96.80;9.60;98680.00;;;;5137235;28;20668;-78
2022/05/01 05:05:20;;;;;;;11.33;3.17;;;10.30;97.40;9.60;98690.00;;;;5137016;28;20221;-78
2022/05/01 05:07:50;;;;;;;3.73;3.43;;;10.20;97.30;9.60;98683.00;;;;5137086;28;20188;-78
2022/05/01 05:10:18;;;;;;;1.93;1.83;;;10.20;97.70;9.60;98686.00;;;;5137086;28;20197;-79
2022/05/01 05:12:48;;;;;;;2.53;2.33;;;10.20;97.70;9.80;98690.00;;;;5136735;28;20231;-78
2022/05/01 05:15:20;;;;;;;2.40;2.30;;;10.40;97.20;9.70;98686.00;;;;5137009;28;20350;-79
2022/05/01 05:17:47;;;;;;;2.90;2.67;;;10.30;96.90;9.80;98691.00;;;;5136803;28;20225;-79
2022/05/01 05:20:14;;;;;;;5.70;3.50;;;10.40;96.80;9.90;98699.00;;;;5136875;28;20209;-79
2022/05/01 05:22:42;;;;;;;2.77;2.63;;;10.50;97.00;9.70;98694.00;;;;5136831;28;20197;-79
2022/05/01 05:25:14;;;;;;;3.77;3.47;;;10.40;96.00;9.80;98696.00;;;;5136749;28;20189;-79
2022/05/01 05:27:41;;;;;;;1.60;1.53;;;10.40;96.70;9.80;98701.00;;;;5136798;28;20201;-80
2022/05/01 05:30:10;;;;;;;2.47;2.27;;;10.40;96.20;9.80;98695.00;;;;5136913;28;20685;-78
2022/05/01 05:32:37;;;;;;;3.73;3.37;;;10.40;96.20;9.80;98695.00;;;;5136571;28;20247;-79
2022/05/01 05:35:05;;;;;;;3.23;2.93;;;10.40;96.20;9.80;98683.00;;;;5136526;28;20227;-77
2022/05/01 05:37:32;;;;;;;3.20;2.97;;;10.40;95.90;9.90;98700.00;;;;5136631;28;20209;-78
2022/05/01 05:39:59;;;;;;;3.03;2.77;;;10.40;95.90;9.70;98699.00;;;;5136629;28;20222;-79
2022/05/01 05:42:25;;;;;;;3.67;3.27;;;10.40;96.10;9.70;98699.00;;;;5137669;28;20283;-79
2022/05/01 05:44:52;;;;;;;3.10;2.90;;;10.40;95.80;9.70;98698.00;;;;5142688;28;20284;-79
2022/05/01 05:47:18;;;;;;;2.43;2.23;;;10.40;95.30;9.80;98700.00;;;;5142830;28;20232;-79
2022/05/01 05:49:45;;;;;;;2.90;2.70;;;10.40;95.80;9.90;98692.00;;;;5119757;28;20200;-79
2022/05/01 05:52:12;;;;;;;1.90;1.80;;;10.40;95.20;10.00;98693.00;;;;5136430;28;20249;-79
2022/05/01 05:54:40;;;;;;;4.33;3.57;;;10.50;95.50;9.90;98689.00;;;;5136270;28;20213;-78
2022/05/01 05:57:09;;;;;;;4.67;3.13;;;10.50;94.80;10.10;98684.00;;;;5136192;28;20282;-79
2022/05/01 05:59:36;;;;;;;2.53;2.00;;;10.60;95.00;10.10;98695.00;;;;5136414;28;20190;-79
2022/05/01 06:02:03;;;;;;;1.83;1.73;;;10.70;94.70;10.10;98693.00;;;;5136226;28;20201;-78
2022/05/01 06:04:32;;;;;;;3.20;3.00;;;10.70;94.90;10.20;98697.00;;;;5136420;28;20265;-78
2022/05/01 06:06:59;;;;;;;4.30;3.03;;;10.70;94.80;10.20;98700.00;;;;5136634;28;20292;-78
2022/05/01 06:09:26;;;;;;;3.40;2.53;;;10.80;93.60;10.20;98708.00;;;;5136247;28;20224;-79
2022/05/01 06:11:53;;;;;;;3.53;2.87;;;10.80;94.10;10.30;98708.00;;;;5135567;27;20298;-79
2022/05/01 06:14:20;;;;;;;3.97;2.93;;;10.90;94.50;10.30;98710.00;;;;5136444;28;20290;-78
2022/05/01 06:16:46;;;;;;;1.67;1.57;;;10.90;94.10;10.40;98709.00;;;;5136118;28;20197;-79
2022/05/01 06:19:13;;;;;;;2.47;2.27;;;11.00;93.90;10.30;98702.00;;;;5118112;28;20225;-78
2022/05/01 06:21:39;;;;;;;2.00;1.90;;;11.00;93.90;10.40;98677.00;;;;5135632;28;20294;-78
2022/05/01 06:24:08;;;;;;;2.47;2.27;;;11.00;94.40;10.50;98705.00;;;;5136749;28;20204;-79
2022/05/01 06:26:34;;;;;;;5.30;3.03;;;11.10;94.20;10.60;98708.00;;;;5118554;28;20217;-80
2022/05/01 06:29:04;;;;;;;3.07;2.87;;;11.20;93.80;10.60;98711.00;;;;5136913;28;20212;-79
2022/05/01 06:31:30;;;;;;;1.93;1.80;;;11.20;93.70;10.80;98713.00;;;;5143315;28;20219;-79
2022/05/01 06:33:57;;;;;;;2.20;2.10;;;11.30;93.60;10.70;98720.00;;;;5143903;28;20664;-79
2022/05/01 06:36:24;;;;;;;2.77;2.57;;;11.30;92.10;10.70;98715.00;;;;5138092;28;20253;-79
2022/05/01 06:38:51;;;;;;;2.80;2.60;;;11.30;91.70;10.80;98718.00;;;;5138000;28;20660;-79
2022/05/01 06:41:18;;;;;;;2.77;2.57;;;11.30;92.20;10.70;98716.00;;;;5140835;28;20208;-78
2022/05/01 06:43:45;;;;;;;3.90;3.57;;;11.30;90.00;10.80;98708.00;;;;5142220;28;20249;-79
2022/05/01 06:46:13;;;;;;;4.77;2.87;;;11.30;91.00;11.00;98712.00;;;;5139008;28;20216;-79
2022/05/01 06:48:39;;;;;;;2.00;1.90;;;11.40;90.60;11.00;98715.00;;;;5136913;28;20213;-79
2022/05/01 06:51:06;;;;;;;3.07;2.50;;;11.50;89.90;11.00;98712.00;;;;5136146;28;20221;-79
2022/05/01 06:53:32;;;;;;;2.87;2.70;;;11.60;89.20;11.00;98706.00;;;;5135382;28;20346;-79
2022/05/01 06:55:59;;;;;;;2.33;2.13;;;11.50;89.10;10.80;98709.00;;;;5135344;28;20228;-77
2022/05/01 06:58:26;;;;;;;3.07;2.63;;;11.50;89.70;10.90;98681.00;;;;5135233;28;20269;-78
2022/05/01 07:00:54;;;;;;;2.77;2.57;;;11.50;90.40;11.10;98715.00;;;;5135248;28;20254;-79
2022/05/01 07:03:21;;;;;;;1.93;1.83;;;11.60;90.30;11.20;98712.00;;;;5135139;28;20616;-79
2022/05/01 07:05:50;;;;;;;2.10;2.00;;;11.70;90.00;11.30;98706.00;;;;5135185;28;20683;-78
2022/05/01 07:08:17;;;;;;;1.90;1.80;;;11.70;88.50;11.20;98719.00;;;;5135261;28;20655;-79
2022/05/01 07:10:46;;;;;;;1.30;1.20;;;11.80;89.00;11.30;98717.00;;;;5135096;28;20256;-78
2022/05/01 07:13:12;;;;;;;2.90;2.07;;;11.80;88.50;11.40;98721.00;;;;5135216;28;20656;-78
2022/05/01 07:15:39;;;;;;;3.87;3.60;;;11.90;90.30;11.50;98723.00;;;;5135082;28;20249;-79
2022/05/01 07:18:06;;;;;;;2.27;2.07;;;12.10;88.00;11.40;98720.00;;;;5134948;28;20208;-77
2022/05/01 07:20:35;;;;;;;2.93;2.73;;;12.00;86.30;11.70;98727.00;;;;5135021;28;20520;-79
2022/05/01 07:23:03;;;;;;;1.80;1.70;;;12.20;86.90;11.70;98721.00;;;;5115916;28;20206;-79
2022/05/01 07:25:30;;;;;;;2.67;2.57;;;12.20;86.00;11.70;98720.00;;;;5135142;28;20201;-79
2022/05/01 07:27:56;;;;;;;2.87;2.50;;;12.30;85.70;11.70;98729.00;;;;5134816;28;20682;-79
2022/05/01 07:30:23;;;;;;;1.63;1.53;;;12.20;86.40;11.60;98726.00;;;;5117147;28;20212;-78
2022/05/01 07:32:50;;;;;;;3.13;2.27;;;12.20;85.40;11.80;98722.00;;;;5134826;28;20308;-79
2022/05/01 07:35:16;;;;;;;2.10;2.00;;;12.30;85.80;12.00;98730.00;;;;5116724;28;20535;-78
2022/05/01 07:37:45;;;;;;;2.23;2.03;;;12.50;86.30;12.10;98722.00;;;;5134650;28;20185;-78
2022/05/01 07:40:15;;;;;;;2.27;2.07;;;12.60;85.50;12.00;98713.00;;;;5134687;28;20265;-79
2022/05/01 07:42:41;;;;;;;2.47;2.27;;;12.60;83.90;12.30;98721.00;;;;5134708;28;20624;-80
2022/05/01 07:45:09;;;;;;;3.80;2.53;;;12.80;82.70;12.40;98724.00;;;;5134548;28;20700;-79
2022/05/01 07:47:36;;;;;;;2.47;2.30;;;12.80;83.30;12.40;98717.00;;;;5134658;28;20189;-80
2022/05/01 07:50:06;;;;;;;2.00;1.90;;;12.90;81.70;12.30;98709.00;;;;5134631;28;20220;-78
2022/05/01 07:52:33;;;;;;;2.27;2.17;;;12.90;81.60;12.10;98712.00;;;;5134567;28;20217;-79
2022/05/01 07:55:00;;;;;;;2.90;2.70;;;12.70;82.10;12.20;98716.00;;;;5134729;28;20304;-79
2022/05/01 07:57:26;;;;;;;3.00;2.30;;;12.70;83.00;12.40;98716.00;;;;5135297;28;20212;-79
2022/05/01 07:59:53;;;;;;;3.60;3.30;;;12.80;82.50;12.50;98717.00;;;;5136931;28;20292;-78
2022/05/01 08:02:22;;;;;;;2.80;2.13;;;13.00;82.40;12.70;98706.00;;;;5134419;28;20213;-79
2022/05/01 08:04:51;;;;;;;12.07;2.80;;;13.30;79.10;12.80;98716.00;;;;5134502;28;20204;-78
2022/05/01 08:07:18;;;;;;;3.03;2.83;;;13.30;79.70;12.90;98716.00;;;;5134378;28;20290;-79
2022/05/01 08:09:45;;;;;;;2.07;1.97;;;13.30;79.60;13.10;98710.00;;;;5134378;28;20288;-79
2022/05/01 08:12:11;;;;;;;2.77;2.57;;;13.50;80.60;13.20;98717.00;;;;5134037;28;20231;-78
2022/05/01 08:14:41;;;;;;;2.07;1.93;;;13.70;79.80;13.10;98708.00;;;;5134365;28;20190;-79
2022/05/01 08:17:10;;;;;;;2.50;2.30;;;13.50;76.90;12.80;98709.00;;;;5134302;28;20209;-79
2022/05/01 08:22:24;;;;;;;2.03;1.83;;;13.50;79.60;13.20;98708.00;;;;5134289;28;20185;-79
2022/05/01 08:24:51;;;;;;;2.67;2.47;;;13.70;78.90;13.50;98711.00;;;;5116050;28;20288;-79
2022/05/01 08:27:17;;;;;;;2.20;2.10;;;13.80;77.20;13.60;98707.00;;;;5134185;28;20204;-79
2022/05/01 08:29:46;;;;;;;2.27;2.07;;;14.00;75.80;13.60;98710.00;;;;5134000;28;20213;-79
2022/05/01 08:32:12;;;;;;;1.90;1.80;;;14.10;75.40;13.80;98706.00;;;;5133836;28;20747;-78
2022/05/01 08:34:39;;;;;;;2.03;1.93;;;14.20;75.50;13.90;98703.00;;;;5136113;27;20255;-79
2022/05/01 08:37:05;;;;;;;1.90;1.80;;;14.30;74.20;14.00;98706.00;;;;5137788;28;20214;-79
2022/05/01 08:39:35;;;;;;;3.80;3.50;;;14.40;73.00;14.10;98706.00;;;;5137489;28;20302;-79
2022/05/01 08:42:03;;;;;;;2.23;2.03;;;14.50;67.40;14.10;98709.00;;;;5137441;28;20226;-81
2022/05/01 08:44:36;;;;;;;2.30;2.10;;;14.60;68.10;14.40;98710.00;;;;5137575;28;20254;-81
2022/05/01 08:47:14;;;;;;;3.00;2.80;;;14.80;66.70;14.30;98714.00;;;;5137632;28;20271;-80
2022/05/01 08:49:43;;;;;;;4.43;1.80;;;14.80;67.60;14.30;98703.00;;;;5137434;28;20193;-80
2022/05/01 08:52:11;;;;;;;1.53;1.50;;;14.80;67.50;14.40;98712.00;;;;5137255;28;20233;-79
2022/05/01 08:54:40;;;;;;;1.83;1.73;;;14.80;66.80;14.50;98708.00;;;;5137862;28;20296;-79
2022/05/01 08:57:09;;;;;;;1.90;1.40;;;14.90;66.70;14.70;98707.00;;;;5119499;28;20555;-79
2022/05/01 08:59:36;;;;;;;1.83;1.73;;;15.00;66.30;14.60;98708.00;;;;5137245;28;20707;-79
2022/05/01 09:02:03;;;;;;;2.50;2.30;;;15.00;64.30;14.60;98706.00;;;;5137237;28;20216;-74
2022/05/01 09:04:30;;;;;;;1.83;1.73;;;15.00;66.00;14.70;98715.00;;;;5137228;28;20704;-73
2022/05/01 09:06:57;;;;;;;4.03;1.60;;;15.10;66.10;14.80;98713.00;;;;5136917;28;20614;-73
2022/05/01 09:09:24;;;;;;;1.63;1.53;;;15.20;62.60;14.90;98703.00;;;;5136859;28;20209;-73
2022/05/01 09:14:42;;;;;;;1.33;1.33;;;15.40;62.10;15.50;98702.00;;;;5139238;28;20220;-74
2022/05/01 09:17:21;;;;;;;1.80;1.70;;;15.60;60.90;15.40;98712.00;;;;5136929;28;20293;-73
2022/05/01 09:19:50;;;;;;;2.23;2.00;;;15.70;61.80;15.30;98703.00;;;;5136772;28;20246;-73
2022/05/01 09:22:20;;;;;;;1.50;1.40;;;15.80;58.80;15.40;98695.00;;;;5136792;28;20281;-75
2022/05/01 09:24:52;;;;;;;2.87;2.67;;;15.80;55.80;15.20;98697.00;;;;5136791;28;20250;-74
2022/05/01 09:27:31;;;;;;;0.87;0.87;;;15.70;56.60;15.40;98701.00;;;;5136754;28;20276;-74
2022/05/01 09:30:11;;;;;;;1.23;1.23;;;15.80;57.20;15.30;98700.00;;;;5136577;28;20274;-74
2022/05/01 09:32:42;;;;;;;0.80;0.80;;;15.80;60.40;15.60;98697.00;;;;5136632;28;20217;-75
2022/05/01 09:35:16;;;;;;;1.73;1.63;;;15.90;56.40;15.50;98694.00;;;;5136471;28;20793;-74
2022/05/01 09:37:44;;;;;;;1.70;1.60;;;15.90;53.30;15.80;98703.00;;;;5136447;28;20212;-72
2022/05/01 09:40:13;;;;;;;4.20;2.77;;;16.10;52.70;16.10;98702.00;;;;5136763;28;20585;-73
2022/05/01 09:42:40;;;;;;;0.97;0.97;;;16.30;53.60;16.20;98710.00;;;;5136291;28;20216;-72
2022/05/01 09:45:11;;;;;;;2.27;1.90;;;16.40;52.20;16.20;98706.00;;;;5135640;27;20292;-81
2022/05/01 09:47:40;;;;;;;1.23;1.23;;;16.50;51.80;16.20;98702.00;;;;5136799;28;20190;-83
2022/05/01 09:50:11;;;;;;;1.10;1.10;;;16.60;50.50;16.20;98703.00;;;;5136776;28;20213;-81
2022/05/01 09:52:58;;;;;;;0.93;0.93;;;16.60;51.20;16.40;98702.00;;;;5136681;28;20241;-82
2022/05/01 09:55:27;;;;;;;3.23;2.03;;;16.70;47.40;16.40;98693.00;;;;5118507;28;20288;-81
2022/05/01 09:58:11;;;;;;;1.93;1.83;;;16.80;49.20;16.70;98704.00;;;;5136588;28;20204;-81
2022/05/01 10:00:44;;;;;;;2.20;2.03;;;17.00;50.00;16.80;98707.00;;;;5136546;28;20192;-81
2022/05/01 10:03:22;;;;;;;2.40;2.23;;;17.10;49.60;16.80;98709.00;;;;5136499;28;20212;-81
2022/05/01 10:05:51;;;;;;;2.53;2.33;;;17.10;46.80;16.60;98706.00;;;;5136276;28;20273;-81
2022/05/01 10:08:19;;;;;;;2.90;1.53;;;17.10;45.60;16.30;98700.00;;;;5136097;28;20254;-81
2022/05/01 10:10:49;;;;;;;4.53;2.97;;;16.80;45.90;16.00;98699.00;;;;5136247;28;20209;-82
2022/05/01 10:13:17;;;;;;;4.90;2.97;;;16.60;46.80;15.90;98702.00;;;;5135894;28;20238;-82
2022/05/01 10:15:45;;;;;;;1.30;1.23;;;16.40;48.90;16.00;98696.00;;;;5136124;28;20221;-82
2022/05/01 10:18:14;;;;;;;3.03;2.80;;;16.50;50.70;16.20;98695.00;;;;5136278;28;20225;-80
2022/05/01 10:20:42;;;;;;;2.17;1.97;;;16.60;49.60;16.40;98700.00;;;;5136240;28;20282;-82
2022/05/01 10:23:11;;;;;;;1.40;1.30;;;16.70;50.20;16.60;98696.00;;;;5142585;28;20253;-81
2022/05/01 10:25:47;;;;;;;4.93;2.20;;;16.90;50.10;16.50;98700.00;;;;5136682;28;20228;-82
2022/05/01 10:28:37;;;;;;;2.73;2.53;;;16.90;47.20;16.60;98693.00;;;;5118927;28;20539;-84
2022/05/01 10:34:49;;;;;;;1.40;1.30;;;17.00;46.40;16.70;98689.00;;;;5136355;28;20205;-82
2022/05/01 10:37:49;;;;;;;1.40;1.40;;;17.00;46.30;16.70;98682.00;;;;5122305;28;20224;-83
2022/05/01 10:40:19;;;;;;;1.70;1.60;;;17.00;47.00;16.80;98677.00;;;;5142534;28;20376;-79
2022/05/01 10:42:48;;;;;;;1.67;1.50;;;17.10;46.60;16.90;98677.00;;;;5143085;28;20258;-81
2022/05/01 10:45:43;;;;;;;2.10;2.00;;;17.20;47.10;16.80;98683.00;;;;5137004;28;20189;-83
2022/05/01 10:48:12;;;;;;;1.20;1.20;;;17.20;45.80;17.10;98677.00;;;;5138973;28;20647;-82
2022/05/01 10:50:39;;;;;;;1.70;1.60;;;17.40;45.90;16.80;98686.00;;;;5145439;28;20277;-82
2022/05/01 10:53:09;;;;;;;1.20;1.20;;;17.30;42.40;16.40;98673.00;;;;5126081;28;20229;-82
2022/05/01 10:55:51;;;;;;;3.27;1.40;;;17.10;43.40;16.50;98681.00;;;;5136394;28;20230;-81
2022/05/01 10:58:25;;;;;;;3.63;2.50;;;17.00;45.00;16.50;98675.00;;;;5118242;28;20531;-83
2022/05/01 11:00:53;;;;;;;2.43;2.30;;;17.00;45.90;16.50;98670.00;;;;5135693;28;20204;-82
2022/05/01 11:03:26;;;;;;;1.63;1.53;;;17.00;44.30;16.70;98670.00;;;;5135611;28;20242;-82
2022/05/01 11:05:57;;;;;;;1.10;1.10;;;17.10;43.20;17.00;98673.00;;;;5135399;28;20189;-82
2022/05/01 11:08:27;;;;;;;2.03;1.93;;;17.20;44.00;17.00;98669.00;;;;5135524;28;20221;-82
2022/05/01 11:10:59;;;;;;;2.00;1.90;;;17.30;41.90;17.10;98666.00;;;;5135366;28;20304;-82
2022/05/01 11:13:31;;;;;;;2.33;2.13;;;17.40;40.70;17.00;98672.00;;;;5135036;28;20231;-81
2022/05/01 11:15:59;;;;;;;1.80;1.70;;;17.40;42.50;16.70;98665.00;;;;5135412;28;20197;-82
2022/05/01 11:18:30;;;;;;;1.53;1.43;;;17.30;43.10;16.90;98658.00;;;;5135166;28;20220;-82
2022/05/01 11:21:33;;;;;;;2.40;2.17;;;17.30;42.80;17.10;98656.00;;;;5134962;28;20251;-81
2022/05/01 11:24:01;;;;;;;1.33;1.23;;;17.50;44.30;17.30;98659.00;;;;5116900;28;20220;-82